createdAt,value
2022-07-28T06:13:31.111Z,1013.47
2022-07-28T06:23:31.166Z,1013.52
2022-07-28T06:33:31.044Z,1013.60
2022-07-28T06:43:31.077Z,1013.50
2022-07-28T06:53:32.379Z,1013.57
2022-07-28T07:03:31.021Z,1013.45
2022-07-28T07:13:31.281Z,1013.39
2022-07-28T07:23:31.073Z,1013.38
2022-07-28T07:33:31.192Z,1013.28
2022-07-28T07:43:30.992Z,1013.25
2022-07-28T07:53:31.192Z,1013.08
2022-07-28T08:03:31.110Z,1013.18
2022-07-28T08:13:31.226Z,1013.12
2022-07-28T08:23:31.143Z,1013.15
2022-07-28T08:33:31.274Z,1013.06
2022-07-28T08:43:31.209Z,1012.95
2022-07-28T08:53:31.380Z,1012.86
2022-07-28T09:03:31.606Z,1012.85
2022-07-28T09:13:31.322Z,1012.71
2022-07-28T09:23:42.960Z,1012.90
2022-07-28T09:33:42.814Z,1012.78
2022-07-28T09:43:31.249Z,1012.70
2022-07-28T09:53:31.210Z,1012.67
2022-07-28T10:03:31.389Z,1012.65
2022-07-28T10:13:31.460Z,1012.64
2022-07-28T10:23:31.370Z,1012.52
2022-07-28T10:33:31.216Z,1012.50
2022-07-28T10:43:31.448Z,1012.34
2022-07-28T10:53:31.386Z,1012.19
2022-07-28T11:03:31.436Z,1012.14
2022-07-28T11:13:33.086Z,1012.03
2022-07-28T11:23:31.302Z,1012.06
2022-07-28T11:33:31.434Z,1011.86
2022-07-28T11:43:36.471Z,1011.68
2022-07-28T11:53:31.714Z,1011.64
2022-07-28T12:03:48.886Z,1011.45
2022-07-28T12:13:31.640Z,1011.37
2022-07-28T12:23:39.242Z,1011.48
2022-07-28T12:33:31.686Z,1011.41
2022-07-28T12:43:31.417Z,1011.25
2022-07-28T12:53:31.600Z,1011.31
2022-07-28T13:03:31.716Z,1011.31
2022-07-28T13:13:31.732Z,1011.19
2022-07-28T13:23:31.620Z,1011.15
2022-07-28T13:33:31.513Z,1011.09
2022-07-28T13:43:36.199Z,1010.83
2022-07-28T13:53:31.592Z,1010.75
2022-07-28T14:03:55.921Z,1010.71
2022-07-28T14:13:31.758Z,1010.74
2022-07-28T14:23:31.613Z,1010.62
2022-07-28T14:33:31.615Z,1010.44
2022-07-28T14:43:31.794Z,1010.49
2022-07-28T14:53:31.578Z,1010.47
2022-07-28T15:03:36.179Z,1010.25
2022-07-28T15:13:31.850Z,1010.23
2022-07-28T15:23:31.851Z,1010.21
2022-07-28T15:33:31.730Z,1010.12
2022-07-28T15:43:31.665Z,1010.06
2022-07-28T15:53:31.780Z,1009.97
2022-07-28T16:03:31.731Z,1009.93
2022-07-28T16:13:37.128Z,1009.91
2022-07-28T16:23:31.730Z,1009.93
2022-07-28T16:33:33.498Z,1009.94
2022-07-28T16:43:31.965Z,1009.87
2022-07-28T16:53:31.844Z,1009.92
2022-07-28T17:03:32.121Z,1009.81
2022-07-28T17:13:32.086Z,1009.90
2022-07-28T17:23:31.990Z,1009.96
2022-07-28T17:33:31.826Z,1009.93
2022-07-28T17:43:31.934Z,1010.06
2022-07-28T17:53:31.757Z,1010.00
2022-07-28T18:03:31.968Z,1010.17
2022-07-28T18:13:31.870Z,1010.26
2022-07-28T18:23:32.132Z,1010.12
2022-07-28T18:33:32.043Z,1010.06
2022-07-28T18:43:31.985Z,1010.14
2022-07-28T18:53:31.917Z,1010.05
2022-07-28T19:03:31.995Z,1010.13
2022-07-28T19:13:32.098Z,1010.17
